KADG/ADG METAR and TAF weather

Enter ICAO airport designator
Station Type Date Time Source
KADG METAR 2020/01/20 12:53 UTC NOAA

KADG 201253Z AUTO 31004KT 10SM CLR M11/M13 A3051 RMK AO2 SLP349 T11111133


Station Type Date Time Source
KADG Decoded METAR 2020/01/20 12:53 UTC NOAA

ADRIAN LENAWEE COUNTY AIRPORT, MI, United States (KADG) 41-52N 84-05W 241M
Jan 20, 2020 - 07:53 AM EST / 2020.01.20 1253 UTC
Wind: from the NW (310 degrees) at 5 MPH (4 KT):0
Visibility: 10 mile(s):0
Sky conditions: clear
Temperature: 12.0 F (-11.1 C)
Windchill: 3 F (-16 C):1
Dew Point: 8.1 F (-13.3 C)
Relative Humidity: 83%
Pressure (altimeter): 30.51 in. Hg (1033 hPa)
ob: KADG 201253Z AUTO 31004KT 10SM CLR M11/M13 A3051 RMK AO2 SLP349 T11111133
cycle: 13

Station Type Date Time Source
KADG TAF UTC NOAA

Error!

Example: see airport list